sensor_id;sensor_type;location;lat;lon;timestamp;P1;durP1;ratioP1;P2;durP2;ratioP2
14760;SDS011;7472;45.396;5.272;2023-07-09T00:00:13;9.43;;;5.43;;
14760;SDS011;7472;45.396;5.272;2023-07-09T00:02:41;7.93;;;5.60;;
14760;SDS011;7472;45.396;5.272;2023-07-09T00:05:09;9.43;;;6.05;;
14760;SDS011;7472;45.396;5.272;2023-07-09T00:07:38;9.30;;;5.40;;
14760;SDS011;7472;45.396;5.272;2023-07-09T00:10:12;12.23;;;5.88;;
14760;SDS011;7472;45.396;5.272;2023-07-09T00:12:40;8.60;;;5.82;;
14760;SDS011;7472;45.396;5.272;2023-07-09T00:15:08;8.40;;;5.40;;
14760;SDS011;7472;45.396;5.272;2023-07-09T00:17:36;9.07;;;5.60;;
14760;SDS011;7472;45.396;5.272;2023-07-09T00:20:05;7.55;;;5.55;;
14760;SDS011;7472;45.396;5.272;2023-07-09T00:22:36;8.10;;;5.40;;
14760;SDS011;7472;45.396;5.272;2023-07-09T00:25:04;12.75;;;6.32;;
14760;SDS011;7472;45.396;5.272;2023-07-09T00:27:33;9.73;;;5.55;;
14760;SDS011;7472;45.396;5.272;2023-07-09T00:30:00;9.20;;;5.97;;
14760;SDS011;7472;45.396;5.272;2023-07-09T00:32:28;10.40;;;5.57;;
14760;SDS011;7472;45.396;5.272;2023-07-09T00:34:55;10.93;;;6.15;;
14760;SDS011;7472;45.396;5.272;2023-07-09T00:37:23;7.90;;;5.55;;
14760;SDS011;7472;45.396;5.272;2023-07-09T00:39:51;15.57;;;5.82;;
14760;SDS011;7472;45.396;5.272;2023-07-09T00:42:19;12.95;;;6.35;;
14760;SDS011;7472;45.396;5.272;2023-07-09T00:44:51;7.53;;;5.68;;
14760;SDS011;7472;45.396;5.272;2023-07-09T00:47:23;6.93;;;5.53;;
14760;SDS011;7472;45.396;5.272;2023-07-09T00:50:06;10.15;;;5.30;;
14760;SDS011;7472;45.396;5.272;2023-07-09T00:52:37;8.70;;;5.40;;
14760;SDS011;7472;45.396;5.272;2023-07-09T00:55:06;8.65;;;6.15;;
14760;SDS011;7472;45.396;5.272;2023-07-09T00:57:37;7.72;;;5.25;;
14760;SDS011;7472;45.396;5.272;2023-07-09T01:00:09;9.82;;;5.22;;
14760;SDS011;7472;45.396;5.272;2023-07-09T01:02:38;11.50;;;5.05;;
14760;SDS011;7472;45.396;5.272;2023-07-09T01:05:08;13.80;;;5.95;;
14760;SDS011;7472;45.396;5.272;2023-07-09T01:07:38;7.93;;;5.97;;
14760;SDS011;7472;45.396;5.272;2023-07-09T01:10:06;8.35;;;5.47;;
14760;SDS011;7472;45.396;5.272;2023-07-09T01:12:33;8.02;;;5.60;;
14760;SDS011;7472;45.396;5.272;2023-07-09T01:15:00;12.52;;;5.68;;
14760;SDS011;7472;45.396;5.272;2023-07-09T01:17:30;9.20;;;5.68;;
14760;SDS011;7472;45.396;5.272;2023-07-09T01:19:57;9.80;;;5.75;;
14760;SDS011;7472;45.396;5.272;2023-07-09T01:22:26;6.55;;;5.03;;
14760;SDS011;7472;45.396;5.272;2023-07-09T01:24:57;8.48;;;5.43;;
14760;SDS011;7472;45.396;5.272;2023-07-09T01:27:28;6.72;;;5.30;;
14760;SDS011;7472;45.396;5.272;2023-07-09T01:29:58;10.98;;;5.65;;
14760;SDS011;7472;45.396;5.272;2023-07-09T01:32:26;8.05;;;5.60;;
14760;SDS011;7472;45.396;5.272;2023-07-09T01:34:58;10.35;;;5.68;;
14760;SDS011;7472;45.396;5.272;2023-07-09T01:37:32;9.85;;;6.15;;
14760;SDS011;7472;45.396;5.272;2023-07-09T01:39:59;8.02;;;6.20;;
14760;SDS011;7472;45.396;5.272;2023-07-09T01:42:27;8.55;;;5.60;;
14760;SDS011;7472;45.396;5.272;2023-07-09T01:44:54;7.32;;;5.80;;
14760;SDS011;7472;45.396;5.272;2023-07-09T01:47:22;9.02;;;5.57;;
14760;SDS011;7472;45.396;5.272;2023-07-09T01:49:50;9.68;;;5.93;;
14760;SDS011;7472;45.396;5.272;2023-07-09T01:52:22;8.98;;;6.05;;
14760;SDS011;7472;45.396;5.272;2023-07-09T01:54:54;6.28;;;5.68;;
14760;SDS011;7472;45.396;5.272;2023-07-09T01:57:22;12.88;;;6.35;;
14760;SDS011;7472;45.396;5.272;2023-07-09T01:59:51;9.80;;;6.22;;
14760;SDS011;7472;45.396;5.272;2023-07-09T02:02:20;10.35;;;5.82;;
14760;SDS011;7472;45.396;5.272;2023-07-09T02:04:47;8.13;;;5.93;;
14760;SDS011;7472;45.396;5.272;2023-07-09T02:07:15;9.82;;;6.65;;
14760;SDS011;7472;45.396;5.272;2023-07-09T02:09:43;10.55;;;6.28;;
14760;SDS011;7472;45.396;5.272;2023-07-09T02:12:12;11.20;;;6.25;;
14760;SDS011;7472;45.396;5.272;2023-07-09T02:14:40;12.50;;;6.00;;
14760;SDS011;7472;45.396;5.272;2023-07-09T02:17:08;7.95;;;5.47;;
14760;SDS011;7472;45.396;5.272;2023-07-09T02:19:35;9.27;;;5.88;;
14760;SDS011;7472;45.396;5.272;2023-07-09T02:22:03;9.75;;;5.72;;
14760;SDS011;7472;45.396;5.272;2023-07-09T02:24:31;14.90;;;6.05;;
14760;SDS011;7472;45.396;5.272;2023-07-09T02:26:59;7.22;;;4.93;;
14760;SDS011;7472;45.396;5.272;2023-07-09T02:29:28;7.22;;;5.63;;
14760;SDS011;7472;45.396;5.272;2023-07-09T02:31:57;10.38;;;6.05;;
14760;SDS011;7472;45.396;5.272;2023-07-09T02:34:26;12.63;;;6.00;;
14760;SDS011;7472;45.396;5.272;2023-07-09T02:36:54;8.80;;;5.60;;
14760;SDS011;7472;45.396;5.272;2023-07-09T02:39:22;6.97;;;6.00;;
14760;SDS011;7472;45.396;5.272;2023-07-09T02:41:49;10.60;;;6.03;;
14760;SDS011;7472;45.396;5.272;2023-07-09T02:44:17;9.07;;;5.80;;
14760;SDS011;7472;45.396;5.272;2023-07-09T02:46:46;8.73;;;5.97;;
14760;SDS011;7472;45.396;5.272;2023-07-09T02:49:13;8.73;;;6.07;;
14760;SDS011;7472;45.396;5.272;2023-07-09T02:51:41;9.75;;;6.25;;
14760;SDS011;7472;45.396;5.272;2023-07-09T02:54:08;8.60;;;5.88;;
14760;SDS011;7472;45.396;5.272;2023-07-09T02:56:36;7.75;;;5.88;;
14760;SDS011;7472;45.396;5.272;2023-07-09T02:59:03;7.13;;;6.32;;
14760;SDS011;7472;45.396;5.272;2023-07-09T03:01:31;14.50;;;6.25;;
14760;SDS011;7472;45.396;5.272;2023-07-09T03:04:01;6.45;;;5.80;;
14760;SDS011;7472;45.396;5.272;2023-07-09T03:06:28;14.10;;;6.50;;
14760;SDS011;7472;45.396;5.272;2023-07-09T03:08:58;11.60;;;6.90;;
14760;SDS011;7472;45.396;5.272;2023-07-09T03:11:27;12.23;;;6.55;;
14760;SDS011;7472;45.396;5.272;2023-07-09T03:13:55;11.63;;;6.90;;
14760;SDS011;7472;45.396;5.272;2023-07-09T03:16:22;10.73;;;6.68;;
14760;SDS011;7472;45.396;5.272;2023-07-09T03:18:49;9.52;;;6.55;;
14760;SDS011;7472;45.396;5.272;2023-07-09T03:21:18;7.70;;;6.38;;
14760;SDS011;7472;45.396;5.272;2023-07-09T03:23:45;10.52;;;6.97;;
14760;SDS011;7472;45.396;5.272;2023-07-09T03:26:13;8.70;;;6.38;;
14760;SDS011;7472;45.396;5.272;2023-07-09T03:28:40;9.55;;;6.47;;
14760;SDS011;7472;45.396;5.272;2023-07-09T03:31:08;9.48;;;5.63;;
14760;SDS011;7472;45.396;5.272;2023-07-09T03:33:35;9.60;;;6.47;;
14760;SDS011;7472;45.396;5.272;2023-07-09T03:36:03;9.00;;;6.40;;
14760;SDS011;7472;45.396;5.272;2023-07-09T03:38:32;7.03;;;5.57;;
14760;SDS011;7472;45.396;5.272;2023-07-09T03:41:00;10.88;;;6.13;;
14760;SDS011;7472;45.396;5.272;2023-07-09T03:43:27;9.50;;;6.10;;
14760;SDS011;7472;45.396;5.272;2023-07-09T03:45:54;9.30;;;6.30;;
14760;SDS011;7472;45.396;5.272;2023-07-09T03:48:22;8.48;;;6.10;;
14760;SDS011;7472;45.396;5.272;2023-07-09T03:50:49;10.57;;;6.38;;
14760;SDS011;7472;45.396;5.272;2023-07-09T03:53:17;8.55;;;6.00;;
14760;SDS011;7472;45.396;5.272;2023-07-09T03:55:46;9.18;;;5.88;;
14760;SDS011;7472;45.396;5.272;2023-07-09T03:58:18;6.68;;;5.45;;
14760;SDS011;7472;45.396;5.272;2023-07-09T04:00:45;7.70;;;5.90;;
14760;SDS011;7472;45.396;5.272;2023-07-09T04:03:13;8.98;;;5.70;;
14760;SDS011;7472;45.396;5.272;2023-07-09T04:05:40;8.18;;;6.30;;
14760;SDS011;7472;45.396;5.272;2023-07-09T04:08:07;8.73;;;6.00;;
14760;SDS011;7472;45.396;5.272;2023-07-09T04:10:35;10.82;;;5.90;;
14760;SDS011;7472;45.396;5.272;2023-07-09T04:13:04;7.20;;;6.00;;
14760;SDS011;7472;45.396;5.272;2023-07-09T04:15:31;8.82;;;5.55;;
14760;SDS011;7472;45.396;5.272;2023-07-09T04:17:59;8.85;;;5.90;;
14760;SDS011;7472;45.396;5.272;2023-07-09T04:20:26;10.48;;;6.30;;
14760;SDS011;7472;45.396;5.272;2023-07-09T04:22:54;13.45;;;6.53;;
14760;SDS011;7472;45.396;5.272;2023-07-09T04:25:21;9.30;;;6.93;;
14760;SDS011;7472;45.396;5.272;2023-07-09T04:27:49;11.20;;;6.65;;
14760;SDS011;7472;45.396;5.272;2023-07-09T04:30:18;9.00;;;6.22;;
14760;SDS011;7472;45.396;5.272;2023-07-09T04:32:45;11.25;;;6.30;;
14760;SDS011;7472;45.396;5.272;2023-07-09T04:35:13;8.55;;;6.00;;
14760;SDS011;7472;45.396;5.272;2023-07-09T04:37:41;9.82;;;6.28;;
14760;SDS011;7472;45.396;5.272;2023-07-09T04:40:09;10.35;;;6.68;;
14760;SDS011;7472;45.396;5.272;2023-07-09T04:42:37;9.02;;;6.00;;
14760;SDS011;7472;45.396;5.272;2023-07-09T04:45:05;8.50;;;6.50;;
14760;SDS011;7472;45.396;5.272;2023-07-09T04:47:35;9.70;;;6.50;;
14760;SDS011;7472;45.396;5.272;2023-07-09T04:50:03;7.25;;;5.70;;
14760;SDS011;7472;45.396;5.272;2023-07-09T04:52:30;10.48;;;5.93;;
14760;SDS011;7472;45.396;5.272;2023-07-09T04:54:57;9.70;;;6.30;;
14760;SDS011;7472;45.396;5.272;2023-07-09T04:57:26;8.98;;;6.60;;
14760;SDS011;7472;45.396;5.272;2023-07-09T04:59:54;9.70;;;6.10;;
14760;SDS011;7472;45.396;5.272;2023-07-09T05:02:21;12.13;;;6.25;;
14760;SDS011;7472;45.396;5.272;2023-07-09T05:04:50;10.00;;;5.40;;
14760;SDS011;7472;45.396;5.272;2023-07-09T05:07:18;10.45;;;5.95;;
14760;SDS011;7472;45.396;5.272;2023-07-09T05:09:45;10.38;;;6.47;;
14760;SDS011;7472;45.396;5.272;2023-07-09T05:12:12;8.73;;;5.95;;
14760;SDS011;7472;45.396;5.272;2023-07-09T05:14:40;10.38;;;6.22;;
14760;SDS011;7472;45.396;5.272;2023-07-09T05:17:07;9.55;;;5.97;;
14760;SDS011;7472;45.396;5.272;2023-07-09T05:19:35;11.55;;;6.07;;
14760;SDS011;7472;45.396;5.272;2023-07-09T05:22:04;7.28;;;5.80;;
14760;SDS011;7472;45.396;5.272;2023-07-09T05:24:32;10.43;;;5.85;;
14760;SDS011;7472;45.396;5.272;2023-07-09T05:26:59;6.47;;;5.80;;
14760;SDS011;7472;45.396;5.272;2023-07-09T05:29:26;9.55;;;6.13;;
14760;SDS011;7472;45.396;5.272;2023-07-09T05:31:54;9.93;;;5.78;;
14760;SDS011;7472;45.396;5.272;2023-07-09T05:34:21;10.18;;;4.97;;
14760;SDS011;7472;45.396;5.272;2023-07-09T05:36:49;8.70;;;6.88;;
14760;SDS011;7472;45.396;5.272;2023-07-09T05:39:17;10.05;;;6.13;;
14760;SDS011;7472;45.396;5.272;2023-07-09T05:41:45;7.80;;;6.05;;
14760;SDS011;7472;45.396;5.272;2023-07-09T05:44:12;6.65;;;5.38;;
14760;SDS011;7472;45.396;5.272;2023-07-09T05:46:39;9.93;;;5.78;;
14760;SDS011;7472;45.396;5.272;2023-07-09T05:49:07;7.95;;;5.65;;
14760;SDS011;7472;45.396;5.272;2023-07-09T05:51:34;11.93;;;5.95;;
14760;SDS011;7472;45.396;5.272;2023-07-09T05:54:01;10.25;;;5.75;;
14760;SDS011;7472;45.396;5.272;2023-07-09T05:56:30;7.25;;;5.85;;
14760;SDS011;7472;45.396;5.272;2023-07-09T05:58:58;13.25;;;6.68;;
14760;SDS011;7472;45.396;5.272;2023-07-09T06:01:25;11.27;;;5.80;;
14760;SDS011;7472;45.396;5.272;2023-07-09T06:03:52;8.02;;;6.15;;
14760;SDS011;7472;45.396;5.272;2023-07-09T06:06:21;8.32;;;5.53;;
14760;SDS011;7472;45.396;5.272;2023-07-09T06:08:49;11.15;;;6.00;;
14760;SDS011;7472;45.396;5.272;2023-07-09T06:11:16;9.50;;;5.70;;
14760;SDS011;7472;45.396;5.272;2023-07-09T06:13:45;10.48;;;5.97;;
14760;SDS011;7472;45.396;5.272;2023-07-09T06:16:13;9.35;;;5.65;;
14760;SDS011;7472;45.396;5.272;2023-07-09T06:18:41;12.35;;;6.47;;
14760;SDS011;7472;45.396;5.272;2023-07-09T06:21:08;9.88;;;5.63;;
14760;SDS011;7472;45.396;5.272;2023-07-09T06:23:36;7.85;;;5.70;;
14760;SDS011;7472;45.396;5.272;2023-07-09T06:26:04;6.13;;;5.35;;
14760;SDS011;7472;45.396;5.272;2023-07-09T06:28:31;11.63;;;5.55;;
14760;SDS011;7472;45.396;5.272;2023-07-09T06:31:00;7.82;;;5.90;;
14760;SDS011;7472;45.396;5.272;2023-07-09T06:33:28;9.52;;;5.75;;
14760;SDS011;7472;45.396;5.272;2023-07-09T06:35:56;6.80;;;5.30;;
14760;SDS011;7472;45.396;5.272;2023-07-09T06:38:24;9.93;;;5.97;;
14760;SDS011;7472;45.396;5.272;2023-07-09T06:40:52;9.10;;;5.68;;
14760;SDS011;7472;45.396;5.272;2023-07-09T06:43:19;12.38;;;5.82;;
14760;SDS011;7472;45.396;5.272;2023-07-09T06:45:54;6.20;;;4.93;;
14760;SDS011;7472;45.396;5.272;2023-07-09T06:48:24;11.20;;;5.63;;
14760;SDS011;7472;45.396;5.272;2023-07-09T06:50:51;7.47;;;5.70;;
14760;SDS011;7472;45.396;5.272;2023-07-09T06:53:19;10.70;;;5.40;;
14760;SDS011;7472;45.396;5.272;2023-07-09T06:55:47;6.40;;;5.70;;
14760;SDS011;7472;45.396;5.272;2023-07-09T06:58:15;7.53;;;5.15;;
14760;SDS011;7472;45.396;5.272;2023-07-09T07:00:43;10.55;;;5.40;;
14760;SDS011;7472;45.396;5.272;2023-07-09T07:03:10;8.15;;;5.40;;
14760;SDS011;7472;45.396;5.272;2023-07-09T07:05:42;7.70;;;5.32;;
14760;SDS011;7472;45.396;5.272;2023-07-09T07:08:09;6.97;;;5.90;;
14760;SDS011;7472;45.396;5.272;2023-07-09T07:10:37;8.75;;;5.57;;
14760;SDS011;7472;45.396;5.272;2023-07-09T07:13:04;7.45;;;5.55;;
14760;SDS011;7472;45.396;5.272;2023-07-09T07:15:32;8.07;;;5.65;;
14760;SDS011;7472;45.396;5.272;2023-07-09T07:17:59;7.88;;;5.57;;
14760;SDS011;7472;45.396;5.272;2023-07-09T07:20:26;8.65;;;5.90;;
14760;SDS011;7472;45.396;5.272;2023-07-09T07:22:55;9.07;;;5.32;;
14760;SDS011;7472;45.396;5.272;2023-07-09T07:25:23;7.70;;;5.20;;
14760;SDS011;7472;45.396;5.272;2023-07-09T07:27:51;11.13;;;5.38;;
14760;SDS011;7472;45.396;5.272;2023-07-09T07:30:18;5.18;;;4.68;;
14760;SDS011;7472;45.396;5.272;2023-07-09T07:32:46;8.65;;;4.88;;
14760;SDS011;7472;45.396;5.272;2023-07-09T07:35:15;9.05;;;5.35;;
14760;SDS011;7472;45.396;5.272;2023-07-09T07:37:43;10.38;;;5.43;;
14760;SDS011;7472;45.396;5.272;2023-07-09T07:40:12;8.77;;;5.53;;
14760;SDS011;7472;45.396;5.272;2023-07-09T07:42:40;10.43;;;6.18;;
14760;SDS011;7472;45.396;5.272;2023-07-09T07:45:07;7.53;;;5.25;;
14760;SDS011;7472;45.396;5.272;2023-07-09T07:47:35;7.57;;;5.72;;
14760;SDS011;7472;45.396;5.272;2023-07-09T07:50:02;6.30;;;4.97;;
14760;SDS011;7472;45.396;5.272;2023-07-09T07:52:30;10.73;;;5.45;;
14760;SDS011;7472;45.396;5.272;2023-07-09T07:54:58;8.15;;;4.85;;
14760;SDS011;7472;45.396;5.272;2023-07-09T07:57:27;8.95;;;5.45;;
14760;SDS011;7472;45.396;5.272;2023-07-09T07:59:54;7.95;;;5.07;;
14760;SDS011;7472;45.396;5.272;2023-07-09T08:02:22;8.38;;;5.50;;
14760;SDS011;7472;45.396;5.272;2023-07-09T08:04:50;8.43;;;5.20;;
14760;SDS011;7472;45.396;5.272;2023-07-09T08:07:17;6.88;;;5.00;;
14760;SDS011;7472;45.396;5.272;2023-07-09T08:09:46;14.60;;;5.13;;
14760;SDS011;7472;45.396;5.272;2023-07-09T08:12:13;6.78;;;4.45;;
14760;SDS011;7472;45.396;5.272;2023-07-09T08:14:44;7.13;;;5.03;;
14760;SDS011;7472;45.396;5.272;2023-07-09T08:17:11;6.72;;;4.85;;
14760;SDS011;7472;45.396;5.272;2023-07-09T08:19:45;7.93;;;4.97;;
14760;SDS011;7472;45.396;5.272;2023-07-09T08:22:13;7.55;;;4.45;;
14760;SDS011;7472;45.396;5.272;2023-07-09T08:24:41;5.38;;;4.80;;
14760;SDS011;7472;45.396;5.272;2023-07-09T08:27:08;6.07;;;4.72;;
14760;SDS011;7472;45.396;5.272;2023-07-09T08:29:36;10.32;;;4.85;;
14760;SDS011;7472;45.396;5.272;2023-07-09T08:32:06;6.97;;;5.20;;
14760;SDS011;7472;45.396;5.272;2023-07-09T08:34:34;4.78;;;4.05;;
14760;SDS011;7472;45.396;5.272;2023-07-09T08:37:01;6.20;;;4.15;;
14760;SDS011;7472;45.396;5.272;2023-07-09T08:39:29;8.70;;;4.60;;
14760;SDS011;7472;45.396;5.272;2023-07-09T08:41:57;4.88;;;4.15;;
14760;SDS011;7472;45.396;5.272;2023-07-09T08:44:34;10.20;;;5.07;;
14760;SDS011;7472;45.396;5.272;2023-07-09T08:47:11;7.60;;;4.60;;
14760;SDS011;7472;45.396;5.272;2023-07-09T08:49:43;7.63;;;4.63;;
14760;SDS011;7472;45.396;5.272;2023-07-09T08:52:14;6.30;;;4.25;;
14760;SDS011;7472;45.396;5.272;2023-07-09T08:54:42;5.60;;;4.63;;
14760;SDS011;7472;45.396;5.272;2023-07-09T08:57:15;7.68;;;4.70;;
14760;SDS011;7472;45.396;5.272;2023-07-09T08:59:44;13.93;;;9.57;;
14760;SDS011;7472;45.396;5.272;2023-07-09T09:02:16;21.35;;;16.90;;
14760;SDS011;7472;45.396;5.272;2023-07-09T09:04:46;11.85;;;5.72;;
14760;SDS011;7472;45.396;5.272;2023-07-09T09:07:16;7.82;;;4.70;;
14760;SDS011;7472;45.396;5.272;2023-07-09T09:09:46;7.90;;;4.55;;
14760;SDS011;7472;45.396;5.272;2023-07-09T09:12:18;7.85;;;4.35;;
14760;SDS011;7472;45.396;5.272;2023-07-09T09:14:48;5.18;;;4.20;;
14760;SDS011;7472;45.396;5.272;2023-07-09T09:17:21;5.00;;;4.30;;
14760;SDS011;7472;45.396;5.272;2023-07-09T09:19:50;5.72;;;3.80;;
14760;SDS011;7472;45.396;5.272;2023-07-09T09:22:21;6.60;;;4.15;;
14760;SDS011;7472;45.396;5.272;2023-07-09T09:24:53;4.65;;;4.25;;
14760;SDS011;7472;45.396;5.272;2023-07-09T09:27:22;8.82;;;4.57;;
14760;SDS011;7472;45.396;5.272;2023-07-09T09:29:49;6.95;;;4.22;;
14760;SDS011;7472;45.396;5.272;2023-07-09T09:32:19;8.70;;;4.70;;
14760;SDS011;7472;45.396;5.272;2023-07-09T09:34:48;7.15;;;4.82;;
14760;SDS011;7472;45.396;5.272;2023-07-09T09:39:48;10.43;;;4.45;;
14760;SDS011;7472;45.396;5.272;2023-07-09T09:42:15;4.60;;;4.03;;
14760;SDS011;7472;45.396;5.272;2023-07-09T09:44:45;6.57;;;3.95;;
14760;SDS011;7472;45.396;5.272;2023-07-09T09:47:13;5.88;;;4.82;;
14760;SDS011;7472;45.396;5.272;2023-07-09T09:49:40;8.40;;;4.47;;
14760;SDS011;7472;45.396;5.272;2023-07-09T09:52:11;6.13;;;4.55;;
14760;SDS011;7472;45.396;5.272;2023-07-09T09:54:40;6.63;;;4.18;;
14760;SDS011;7472;45.396;5.272;2023-07-09T09:57:16;6.35;;;4.50;;
14760;SDS011;7472;45.396;5.272;2023-07-09T09:59:46;5.90;;;4.38;;
14760;SDS011;7472;45.396;5.272;2023-07-09T10:02:15;8.68;;;4.75;;
14760;SDS011;7472;45.396;5.272;2023-07-09T10:04:43;4.75;;;4.32;;
14760;SDS011;7472;45.396;5.272;2023-07-09T10:07:13;5.70;;;4.50;;
14760;SDS011;7472;45.396;5.272;2023-07-09T10:09:46;5.75;;;4.20;;
14760;SDS011;7472;45.396;5.272;2023-07-09T10:12:29;6.72;;;4.63;;
14760;SDS011;7472;45.396;5.272;2023-07-09T10:15:05;6.88;;;4.07;;
14760;SDS011;7472;45.396;5.272;2023-07-09T10:17:38;4.60;;;4.10;;
14760;SDS011;7472;45.396;5.272;2023-07-09T10:20:07;5.95;;;4.35;;
14760;SDS011;7472;45.396;5.272;2023-07-09T10:22:40;10.02;;;4.47;;
14760;SDS011;7472;45.396;5.272;2023-07-09T10:25:15;12.18;;;4.47;;
14760;SDS011;7472;45.396;5.272;2023-07-09T10:27:53;5.68;;;4.45;;
14760;SDS011;7472;45.396;5.272;2023-07-09T10:30:30;5.03;;;4.25;;
14760;SDS011;7472;45.396;5.272;2023-07-09T10:33:05;7.70;;;5.05;;
14760;SDS011;7472;45.396;5.272;2023-07-09T10:35:37;5.70;;;4.55;;
14760;SDS011;7472;45.396;5.272;2023-07-09T10:38:10;8.30;;;4.50;;
14760;SDS011;7472;45.396;5.272;2023-07-09T10:40:41;6.60;;;4.57;;
14760;SDS011;7472;45.396;5.272;2023-07-09T10:43:11;5.63;;;4.55;;
14760;SDS011;7472;45.396;5.272;2023-07-09T10:45:40;6.43;;;4.38;;
14760;SDS011;7472;45.396;5.272;2023-07-09T10:48:10;8.70;;;4.78;;
14760;SDS011;7472;45.396;5.272;2023-07-09T10:50:44;10.30;;;4.22;;
14760;SDS011;7472;45.396;5.272;2023-07-09T10:53:14;8.07;;;4.53;;
14760;SDS011;7472;45.396;5.272;2023-07-09T10:55:46;5.18;;;4.60;;
14760;SDS011;7472;45.396;5.272;2023-07-09T10:58:19;7.80;;;4.78;;
14760;SDS011;7472;45.396;5.272;2023-07-09T11:00:49;6.13;;;4.20;;
14760;SDS011;7472;45.396;5.272;2023-07-09T11:03:17;6.20;;;4.18;;
14760;SDS011;7472;45.396;5.272;2023-07-09T11:05:46;7.03;;;4.30;;
14760;SDS011;7472;45.396;5.272;2023-07-09T11:08:16;6.25;;;4.70;;
14760;SDS011;7472;45.396;5.272;2023-07-09T11:10:46;7.80;;;4.20;;
14760;SDS011;7472;45.396;5.272;2023-07-09T11:13:16;7.57;;;4.47;;
14760;SDS011;7472;45.396;5.272;2023-07-09T11:15:46;5.82;;;4.20;;
14760;SDS011;7472;45.396;5.272;2023-07-09T11:18:16;8.23;;;4.53;;
14760;SDS011;7472;45.396;5.272;2023-07-09T11:20:54;5.22;;;4.68;;
14760;SDS011;7472;45.396;5.272;2023-07-09T11:23:23;5.32;;;4.82;;
14760;SDS011;7472;45.396;5.272;2023-07-09T11:26:00;5.68;;;4.43;;
14760;SDS011;7472;45.396;5.272;2023-07-09T11:28:32;6.18;;;4.53;;
14760;SDS011;7472;45.396;5.272;2023-07-09T11:31:05;7.38;;;4.80;;
14760;SDS011;7472;45.396;5.272;2023-07-09T11:33:33;6.30;;;4.90;;
14760;SDS011;7472;45.396;5.272;2023-07-09T11:36:07;10.55;;;5.10;;
14760;SDS011;7472;45.396;5.272;2023-07-09T11:38:40;6.97;;;4.90;;
14760;SDS011;7472;45.396;5.272;2023-07-09T11:41:22;9.07;;;5.60;;
14760;SDS011;7472;45.396;5.272;2023-07-09T11:43:51;8.93;;;5.15;;
14760;SDS011;7472;45.396;5.272;2023-07-09T11:46:20;7.13;;;5.15;;
14760;SDS011;7472;45.396;5.272;2023-07-09T11:48:49;7.75;;;4.72;;
14760;SDS011;7472;45.396;5.272;2023-07-09T11:51:25;5.53;;;4.82;;
14760;SDS011;7472;45.396;5.272;2023-07-09T11:53:57;5.50;;;4.82;;
14760;SDS011;7472;45.396;5.272;2023-07-09T11:56:25;6.07;;;4.45;;
14760;SDS011;7472;45.396;5.272;2023-07-09T11:58:54;5.55;;;4.60;;
14760;SDS011;7472;45.396;5.272;2023-07-09T12:01:22;9.73;;;5.05;;
14760;SDS011;7472;45.396;5.272;2023-07-09T12:03:50;7.97;;;4.88;;
14760;SDS011;7472;45.396;5.272;2023-07-09T12:06:18;7.45;;;5.05;;
14760;SDS011;7472;45.396;5.272;2023-07-09T12:08:46;9.05;;;4.88;;
14760;SDS011;7472;45.396;5.272;2023-07-09T12:11:22;6.47;;;4.97;;
14760;SDS011;7472;45.396;5.272;2023-07-09T12:13:49;6.10;;;4.78;;
14760;SDS011;7472;45.396;5.272;2023-07-09T12:16:20;10.85;;;5.05;;
14760;SDS011;7472;45.396;5.272;2023-07-09T12:18:48;6.20;;;4.63;;
14760;SDS011;7472;45.396;5.272;2023-07-09T12:21:16;5.72;;;4.97;;
14760;SDS011;7472;45.396;5.272;2023-07-09T12:23:43;8.35;;;4.95;;
14760;SDS011;7472;45.396;5.272;2023-07-09T12:26:11;6.70;;;4.70;;
14760;SDS011;7472;45.396;5.272;2023-07-09T12:28:41;4.90;;;4.40;;
14760;SDS011;7472;45.396;5.272;2023-07-09T12:31:12;5.05;;;4.65;;
14760;SDS011;7472;45.396;5.272;2023-07-09T12:33:46;7.70;;;4.43;;
14760;SDS011;7472;45.396;5.272;2023-07-09T12:36:14;11.55;;;4.78;;
14760;SDS011;7472;45.396;5.272;2023-07-09T12:38:43;5.20;;;4.70;;
14760;SDS011;7472;45.396;5.272;2023-07-09T12:41:15;7.95;;;5.03;;
14760;SDS011;7472;45.396;5.272;2023-07-09T12:43:46;8.50;;;4.50;;
14760;SDS011;7472;45.396;5.272;2023-07-09T12:46:13;6.20;;;4.50;;
14760;SDS011;7472;45.396;5.272;2023-07-09T12:48:41;10.73;;;4.78;;
14760;SDS011;7472;45.396;5.272;2023-07-09T12:51:08;6.72;;;5.05;;
14760;SDS011;7472;45.396;5.272;2023-07-09T12:53:36;9.75;;;4.85;;
14760;SDS011;7472;45.396;5.272;2023-07-09T12:56:04;5.03;;;4.38;;
14760;SDS011;7472;45.396;5.272;2023-07-09T12:58:38;6.00;;;4.30;;
14760;SDS011;7472;45.396;5.272;2023-07-09T13:01:13;6.30;;;4.63;;
14760;SDS011;7472;45.396;5.272;2023-07-09T13:03:41;6.85;;;4.93;;
14760;SDS011;7472;45.396;5.272;2023-07-09T13:06:26;9.00;;;4.47;;
14760;SDS011;7472;45.396;5.272;2023-07-09T13:08:55;6.07;;;4.28;;
14760;SDS011;7472;45.396;5.272;2023-07-09T13:11:31;5.03;;;4.30;;
14760;SDS011;7472;45.396;5.272;2023-07-09T13:13:59;9.40;;;4.97;;
14760;SDS011;7472;45.396;5.272;2023-07-09T13:16:39;5.18;;;4.43;;
14760;SDS011;7472;45.396;5.272;2023-07-09T13:19:09;8.13;;;4.57;;
14760;SDS011;7472;45.396;5.272;2023-07-09T13:21:37;6.07;;;4.15;;
14760;SDS011;7472;45.396;5.272;2023-07-09T13:24:08;6.90;;;4.35;;
14760;SDS011;7472;45.396;5.272;2023-07-09T13:26:39;6.72;;;3.67;;
14760;SDS011;7472;45.396;5.272;2023-07-09T13:29:10;6.55;;;4.45;;
14760;SDS011;7472;45.396;5.272;2023-07-09T13:31:41;8.40;;;4.38;;
14760;SDS011;7472;45.396;5.272;2023-07-09T13:34:13;5.93;;;4.10;;
14760;SDS011;7472;45.396;5.272;2023-07-09T13:36:43;11.10;;;4.40;;
14760;SDS011;7472;45.396;5.272;2023-07-09T13:39:11;7.00;;;3.72;;
14760;SDS011;7472;45.396;5.272;2023-07-09T13:41:41;6.15;;;4.00;;
14760;SDS011;7472;45.396;5.272;2023-07-09T13:44:10;7.18;;;3.40;;
14760;SDS011;7472;45.396;5.272;2023-07-09T13:46:38;7.18;;;3.78;;
14760;SDS011;7472;45.396;5.272;2023-07-09T13:49:09;8.73;;;4.00;;
14760;SDS011;7472;45.396;5.272;2023-07-09T13:51:37;8.48;;;3.97;;
14760;SDS011;7472;45.396;5.272;2023-07-09T13:54:09;6.22;;;3.70;;
14760;SDS011;7472;45.396;5.272;2023-07-09T13:56:40;7.70;;;4.15;;
14760;SDS011;7472;45.396;5.272;2023-07-09T13:59:11;7.70;;;4.00;;
14760;SDS011;7472;45.396;5.272;2023-07-09T14:01:39;7.10;;;4.03;;
14760;SDS011;7472;45.396;5.272;2023-07-09T14:04:08;7.22;;;3.83;;
14760;SDS011;7472;45.396;5.272;2023-07-09T14:06:37;4.15;;;3.63;;
14760;SDS011;7472;45.396;5.272;2023-07-09T14:09:05;6.70;;;3.97;;
14760;SDS011;7472;45.396;5.272;2023-07-09T14:11:33;7.68;;;3.50;;
14760;SDS011;7472;45.396;5.272;2023-07-09T14:14:01;6.25;;;3.75;;
14760;SDS011;7472;45.396;5.272;2023-07-09T14:16:28;6.97;;;4.07;;
14760;SDS011;7472;45.396;5.272;2023-07-09T14:18:56;6.15;;;3.97;;
14760;SDS011;7472;45.396;5.272;2023-07-09T14:21:24;9.35;;;3.88;;
14760;SDS011;7472;45.396;5.272;2023-07-09T14:23:54;6.03;;;4.10;;
14760;SDS011;7472;45.396;5.272;2023-07-09T14:26:21;6.07;;;3.90;;
14760;SDS011;7472;45.396;5.272;2023-07-09T14:28:49;6.15;;;3.70;;
14760;SDS011;7472;45.396;5.272;2023-07-09T14:31:19;8.10;;;4.20;;
14760;SDS011;7472;45.396;5.272;2023-07-09T14:33:47;8.45;;;3.80;;
14760;SDS011;7472;45.396;5.272;2023-07-09T14:36:14;6.20;;;3.95;;
14760;SDS011;7472;45.396;5.272;2023-07-09T14:38:42;8.18;;;3.65;;
14760;SDS011;7472;45.396;5.272;2023-07-09T14:41:15;7.38;;;3.67;;
14760;SDS011;7472;45.396;5.272;2023-07-09T14:43:45;9.40;;;4.10;;
14760;SDS011;7472;45.396;5.272;2023-07-09T14:46:12;7.57;;;3.38;;
14760;SDS011;7472;45.396;5.272;2023-07-09T14:48:40;4.78;;;3.55;;
14760;SDS011;7472;45.396;5.272;2023-07-09T14:51:11;5.03;;;3.58;;
14760;SDS011;7472;45.396;5.272;2023-07-09T14:53:40;6.10;;;4.00;;
14760;SDS011;7472;45.396;5.272;2023-07-09T14:56:07;5.72;;;3.13;;
14760;SDS011;7472;45.396;5.272;2023-07-09T14:58:37;6.25;;;3.63;;
14760;SDS011;7472;45.396;5.272;2023-07-09T15:01:07;4.20;;;3.42;;
14760;SDS011;7472;45.396;5.272;2023-07-09T15:03:37;10.00;;;3.78;;
14760;SDS011;7472;45.396;5.272;2023-07-09T15:06:04;5.30;;;3.72;;
14760;SDS011;7472;45.396;5.272;2023-07-09T15:08:32;4.72;;;3.47;;
14760;SDS011;7472;45.396;5.272;2023-07-09T15:10:59;7.25;;;3.70;;